Time;durP1;ratioP1;P1;durP2;ratioP2;P2;SDS_P1;SDS_P2;PMS_P1;PMS_P2;Temp;Humidity;BMP_temperature;BMP_pressure;BME280_temperature;BME280_humidity;BME280_pressure;Samples;Min_cycle;Max_cycle;Signal;HPM_P1;HPM_P2
2023/01/12 00:01:43;;;;;;;13.40;7.77;;;6.20;99.90;;;;;;5016018;28;20214;-70
2023/01/12 00:04:12;;;;;;;8.37;6.23;;;6.20;99.90;;;;;;5011237;28;20188;-71
2023/01/12 00:06:37;;;;;;;10.97;6.70;;;6.10;99.90;;;;;;5023390;28;20195;-64
2023/01/12 00:09:06;;;;;;;12.57;7.07;;;6.10;99.90;;;;;;5009943;28;20840;-70
2023/01/12 00:11:31;;;;;;;13.73;7.47;;;6.00;99.90;;;;;;5015339;28;20207;-69
2023/01/12 00:13:57;;;;;;;9.60;6.83;;;6.00;99.90;;;;;;5023121;28;20206;-64
2023/01/12 00:16:33;;;;;;;13.17;7.50;;;6.00;99.90;;;;;;5018319;28;20211;-65
2023/01/12 00:19:11;;;;;;;8.67;6.70;;;6.00;99.90;;;;;;5015576;28;20195;-66
2023/01/12 00:21:42;;;;;;;11.13;6.73;;;6.00;99.90;;;;;;5014965;28;20203;-65
2023/01/12 00:24:07;;;;;;;11.60;6.93;;;6.00;99.90;;;;;;5020357;28;20198;-64
2023/01/12 00:26:33;;;;;;;8.93;7.40;;;6.00;99.90;;;;;;5023615;28;20569;-63
2023/01/12 00:28:58;;;;;;;12.00;6.20;;;6.10;99.90;;;;;;5020610;28;20192;-66
2023/01/12 00:31:24;;;;;;;11.80;7.13;;;6.00;99.90;;;;;;5015138;28;20210;-69
2023/01/12 00:33:49;;;;;;;8.30;5.73;;;6.00;99.90;;;;;;5023064;28;20203;-72
2023/01/12 00:36:17;;;;;;;12.13;6.13;;;6.40;99.90;;;;;;5014032;28;20191;-71
2023/01/12 00:38:43;;;;;;;14.20;6.67;;;6.50;99.90;;;;;;5017711;28;20208;-71
2023/01/12 00:41:10;;;;;;;11.43;6.20;;;6.40;99.90;;;;;;5014713;28;20369;-69
2023/01/12 00:46:31;;;;;;;11.73;6.10;;;6.20;99.90;;;;;;5015618;28;20209;-70
2023/01/12 00:48:57;;;;;;;10.23;6.30;;;6.10;99.90;;;;;;5010031;28;20202;-70
2023/01/12 00:51:23;;;;;;;14.60;6.07;;;6.10;99.90;;;;;;5027159;28;20199;-70
2023/01/12 00:53:48;;;;;;;9.20;5.80;;;6.10;99.90;;;;;;5019179;28;20558;-69
2023/01/12 00:56:14;;;;;;;11.33;5.60;;;6.00;99.90;;;;;;5014771;28;21006;-69
2023/01/12 00:58:39;;;;;;;11.00;5.37;;;6.00;99.90;;;;;;5012076;28;20251;-68
2023/01/12 01:01:06;;;;;;;10.00;5.83;;;6.00;99.90;;;;;;5017332;28;20254;-69
2023/01/12 01:03:32;;;;;;;7.13;5.33;;;6.00;99.90;;;;;;5005274;28;20323;-69
2023/01/12 01:06:06;;;;;;;7.27;5.03;;;6.00;99.90;;;;;;5014509;28;20269;-70
2023/01/12 01:08:35;;;;;;;7.60;4.80;;;6.00;99.90;;;;;;5016456;28;20485;-70
2023/01/12 01:11:03;;;;;;;11.80;4.60;;;5.90;99.90;;;;;;5011167;28;20609;-71
2023/01/12 01:13:29;;;;;;;10.27;4.60;;;5.90;99.90;;;;;;5009750;28;20232;-69
2023/01/12 01:15:57;;;;;;;14.80;4.70;;;5.90;99.90;;;;;;5012102;28;20341;-69
2023/01/12 01:18:22;;;;;;;10.10;4.63;;;5.90;99.90;;;;;;5016883;28;20732;-69
2023/01/12 01:20:48;;;;;;;12.77;4.53;;;5.90;99.90;;;;;;5014538;28;20241;-70
2023/01/12 01:23:13;;;;;;;11.50;4.30;;;5.90;99.90;;;;;;5014974;28;20939;-69
2023/01/12 01:25:39;;;;;;;7.30;4.07;;;5.80;99.90;;;;;;5003300;28;20199;-68
2023/01/12 01:28:04;;;;;;;8.00;4.13;;;5.90;99.90;;;;;;5015855;28;20570;-70
2023/01/12 01:30:29;;;;;;;6.10;3.53;;;5.90;99.90;;;;;;5005161;28;20208;-70
2023/01/12 01:32:55;;;;;;;10.00;3.77;;;6.00;99.90;;;;;;5005536;28;20197;-71
2023/01/12 01:35:20;;;;;;;5.43;3.17;;;6.10;99.90;;;;;;5006383;28;20204;-71
2023/01/12 01:37:46;;;;;;;6.70;3.33;;;6.20;99.90;;;;;;5003154;28;21223;-71
2023/01/12 01:40:12;;;;;;;10.90;4.13;;;6.30;99.90;;;;;;5006447;28;20641;-69
2023/01/12 01:42:39;;;;;;;6.47;3.43;;;6.40;99.90;;;;;;5006253;28;20240;-71
2023/01/12 01:45:05;;;;;;;7.47;3.13;;;6.50;99.90;;;;;;5008880;28;20285;-70
2023/01/12 01:47:46;;;;;;;7.20;3.30;;;6.50;99.90;;;;;;5010485;28;20246;-65
2023/01/12 01:50:22;;;;;;;6.63;2.83;;;6.60;99.90;;;;;;5007237;28;20200;-69
2023/01/12 01:52:53;;;;;;;9.93;2.77;;;6.60;99.90;;;;;;5007362;28;20211;-65
2023/01/12 01:55:23;;;;;;;12.57;2.90;;;6.50;99.90;;;;;;5009590;28;20199;-64
2023/01/12 01:57:57;;;;;;;4.00;2.57;;;6.50;99.90;;;;;;5008681;28;20210;-66
2023/01/12 02:00:24;;;;;;;7.60;2.93;;;6.40;99.90;;;;;;5008057;28;20602;-66
2023/01/12 02:02:51;;;;;;;8.43;2.60;;;6.40;99.90;;;;;;5010455;28;20595;-64
2023/01/12 02:05:20;;;;;;;8.37;2.53;;;6.40;99.90;;;;;;5010132;28;20215;-64
2023/01/12 02:07:47;;;;;;;7.97;3.00;;;6.40;99.90;;;;;;5010170;28;20626;-65
2023/01/12 02:10:12;;;;;;;3.27;2.07;;;6.40;99.90;;;;;;5009068;28;20199;-64
2023/01/12 02:18:32;;;;;;;7.23;2.30;;;6.40;99.90;;;;;;5024091;28;20696;-64
2023/01/12 02:21:44;;;;;;;7.77;2.37;;;6.40;99.90;;;;;;5020172;28;20222;-64
2023/01/12 02:24:44;;;;;;;7.17;2.50;;;6.50;99.90;;;;;;5024665;28;20199;-65
2023/01/12 02:27:33;;;;;;;7.67;2.60;;;6.50;99.90;;;;;;5023619;28;20271;-63
2023/01/12 02:30:12;;;;;;;11.07;2.77;;;6.40;99.90;;;;;;5029872;28;20238;-63
2023/01/12 02:33:10;;;;;;;6.93;2.97;;;6.40;99.90;;;;;;5021016;28;20664;-65
2023/01/12 02:35:49;;;;;;;7.10;2.47;;;6.30;99.90;;;;;;5024094;28;20249;-64
2023/01/12 02:38:37;;;;;;;15.77;3.80;;;6.30;99.90;;;;;;5033842;28;20233;-64
2023/01/12 02:41:16;;;;;;;11.47;2.63;;;6.20;99.90;;;;;;5033752;28;20201;-63
2023/01/12 02:43:42;;;;;;;8.43;2.63;;;6.10;99.90;;;;;;5036097;28;20206;-65
2023/01/12 02:46:18;;;;;;;5.43;2.63;;;6.10;99.90;;;;;;5035777;28;20665;-64
2023/01/12 02:48:54;;;;;;;4.87;2.40;;;6.10;99.90;;;;;;5035751;28;20226;-65
2023/01/12 02:51:31;;;;;;;8.43;2.83;;;6.10;99.90;;;;;;5035784;28;20190;-64
2023/01/12 02:54:26;;;;;;;7.30;2.27;;;6.10;99.90;;;;;;5036056;28;20210;-63
2023/01/12 02:56:55;;;;;;;8.77;3.03;;;6.10;99.90;;;;;;5030027;28;20687;-64
2023/01/12 02:59:26;;;;;;;7.57;2.70;;;6.10;99.90;;;;;;5034977;28;20285;-65
2023/01/12 03:01:56;;;;;;;11.03;2.53;;;6.10;99.90;;;;;;5028707;28;20198;-64
2023/01/12 03:04:22;;;;;;;5.77;2.10;;;6.10;99.90;;;;;;5031056;28;20298;-66
2023/01/12 03:06:57;;;;;;;7.37;3.20;;;6.10;99.90;;;;;;5030352;28;20744;-64
2023/01/12 03:09:46;;;;;;;5.63;2.20;;;6.10;99.90;;;;;;5043341;28;20174;-66
2023/01/12 03:12:22;;;;;;;6.33;3.17;;;6.10;99.90;;;;;;5009244;28;20255;-65
2023/01/12 03:14:49;;;;;;;7.07;2.30;;;6.20;99.90;;;;;;5004582;28;20241;-65
2023/01/12 03:17:24;;;;;;;10.10;5.70;;;6.20;99.90;;;;;;5004081;28;20200;-65
2023/01/12 03:19:51;;;;;;;6.07;3.40;;;6.20;99.90;;;;;;5004466;28;20188;-64
2023/01/12 03:22:18;;;;;;;4.33;2.37;;;6.20;99.90;;;;;;5003993;28;20509;-63
2023/01/12 03:24:49;;;;;;;5.07;1.93;;;6.60;99.90;;;;;;5004144;28;20188;-66
2023/01/12 03:27:22;;;;;;;6.40;3.07;;;6.70;99.90;;;;;;5004076;28;20672;-65
2023/01/12 03:29:57;;;;;;;9.37;2.63;;;6.60;99.90;;;;;;5004456;28;20184;-66
2023/01/12 03:32:23;;;;;;;7.13;1.93;;;6.60;99.90;;;;;;5006258;28;20666;-65
2023/01/12 03:34:49;;;;;;;7.20;2.30;;;6.60;99.90;;;;;;5005237;28;20181;-62
2023/01/12 03:37:26;;;;;;;6.90;2.10;;;6.60;99.90;;;;;;5004977;28;20180;-62
2023/01/12 03:40:17;;;;;;;8.80;2.17;;;6.60;99.90;;;;;;5003208;28;20187;-62
2023/01/12 03:42:50;;;;;;;5.63;1.60;;;6.60;99.90;;;;;;5003884;28;20235;-62
2023/01/12 03:45:30;;;;;;;9.43;2.53;;;6.60;99.90;;;;;;5003480;28;20189;-66
2023/01/12 03:48:12;;;;;;;4.67;1.93;;;6.70;99.90;;;;;;5003629;28;20564;-63
2023/01/12 03:50:46;;;;;;;4.63;1.77;;;6.60;99.90;;;;;;5008256;28;20211;-63
2023/01/12 03:53:14;;;;;;;6.10;2.10;;;6.70;99.90;;;;;;5026390;28;21025;-67
2023/01/12 03:55:41;;;;;;;9.30;2.00;;;6.70;99.90;;;;;;5023866;28;20595;-66
2023/01/12 03:58:06;;;;;;;3.80;1.63;;;6.70;99.90;;;;;;5026250;28;20203;-65
2023/01/12 04:00:32;;;;;;;9.77;2.63;;;6.70;99.90;;;;;;5019795;28;20192;-65
2023/01/12 04:03:09;;;;;;;7.47;2.40;;;6.80;99.90;;;;;;5025431;28;20298;-66
2023/01/12 04:05:35;;;;;;;6.90;1.90;;;6.70;99.90;;;;;;5017616;28;20203;-66
2023/01/12 04:08:00;;;;;;;11.10;2.17;;;6.70;99.90;;;;;;5026165;28;20668;-65
2023/01/12 04:10:26;;;;;;;4.83;1.73;;;6.80;99.90;;;;;;5028993;28;20214;-65
2023/01/12 04:12:51;;;;;;;3.83;1.90;;;6.80;99.90;;;;;;5029849;28;20194;-64
2023/01/12 04:15:17;;;;;;;5.67;1.93;;;6.80;99.90;;;;;;5029328;28;20195;-64
2023/01/12 04:17:42;;;;;;;11.30;2.47;;;6.80;99.90;;;;;;5028899;28;20203;-77
2023/01/12 04:20:09;;;;;;;9.23;2.23;;;6.80;99.90;;;;;;5018247;28;20655;-65
2023/01/12 04:22:44;;;;;;;6.90;1.90;;;6.80;99.90;;;;;;5027365;28;20456;-65
2023/01/12 04:25:13;;;;;;;7.70;3.00;;;6.80;99.90;;;;;;5029306;28;20218;-65
2023/01/12 04:27:48;;;;;;;8.47;2.07;;;6.80;99.90;;;;;;5021391;28;20211;-66
2023/01/12 04:30:15;;;;;;;4.13;1.47;;;6.90;99.90;;;;;;5029751;28;20194;-65
2023/01/12 04:32:42;;;;;;;8.30;1.83;;;6.80;99.90;;;;;;5029991;28;20198;-64
2023/01/12 04:35:10;;;;;;;4.80;1.43;;;6.90;99.90;;;;;;5027668;28;20248;-65
2023/01/12 04:37:36;;;;;;;4.83;2.10;;;6.90;99.90;;;;;;5037461;28;20620;-65
2023/01/12 04:40:01;;;;;;;7.30;2.30;;;7.00;99.90;;;;;;5039348;28;20210;-66
2023/01/12 04:45:12;;;;;;;6.17;2.27;;;7.00;99.90;;;;;;5031394;28;20591;-65
2023/01/12 04:47:38;;;;;;;6.67;2.03;;;7.00;99.90;;;;;;5036201;28;20211;-67
2023/01/12 04:50:04;;;;;;;5.27;1.90;;;7.00;99.90;;;;;;5038479;28;20190;-64
2023/01/12 04:52:29;;;;;;;4.70;1.63;;;7.00;99.90;;;;;;5038772;28;20756;-66
2023/01/12 04:54:55;;;;;;;6.43;2.13;;;7.10;99.90;;;;;;5037062;28;20207;-66
2023/01/12 04:57:20;;;;;;;3.33;1.90;;;7.10;99.90;;;;;;5039341;28;20202;-66
2023/01/12 04:59:46;;;;;;;6.23;2.43;;;7.10;99.90;;;;;;5039171;28;20359;-66
2023/01/12 05:02:11;;;;;;;3.30;1.67;;;7.10;99.90;;;;;;5037018;28;20211;-65
2023/01/12 05:04:37;;;;;;;7.53;2.17;;;7.10;99.90;;;;;;5017790;28;20215;-65
2023/01/12 05:07:02;;;;;;;6.67;2.23;;;7.10;99.90;;;;;;5020844;28;20215;-64
2023/01/12 05:12:12;;;;;;;3.93;1.40;;;7.20;99.90;;;;;;5029375;28;20704;-65
2023/01/12 05:14:37;;;;;;;10.40;2.17;;;7.20;99.90;;;;;;5027187;28;20210;-64
2023/01/12 05:17:03;;;;;;;2.60;1.23;;;7.30;99.90;;;;;;5028371;28;21057;-65
2023/01/12 05:19:29;;;;;;;5.23;1.90;;;7.30;99.90;;;;;;5029156;28;20268;-63
2023/01/12 05:21:54;;;;;;;6.23;2.30;;;7.30;99.90;;;;;;5030037;28;21499;-65
2023/01/12 05:24:20;;;;;;;5.30;2.07;;;7.30;99.90;;;;;;5026383;28;20236;-66
2023/01/12 05:26:45;;;;;;;4.43;1.60;;;7.30;99.90;;;;;;5037176;28;20569;-66
2023/01/12 05:29:11;;;;;;;5.00;1.40;;;7.40;99.90;;;;;;5038230;28;20681;-65
2023/01/12 05:31:37;;;;;;;5.10;1.70;;;7.40;99.90;;;;;;5038265;28;20209;-66
2023/01/12 05:34:02;;;;;;;6.17;2.20;;;7.50;99.90;;;;;;5031198;28;20617;-66
2023/01/12 05:36:28;;;;;;;11.37;2.00;;;7.50;99.90;;;;;;5035763;28;20219;-65
2023/01/12 05:38:53;;;;;;;5.07;1.97;;;7.50;99.90;;;;;;5038051;28;20870;-66
2023/01/12 05:41:21;;;;;;;5.53;1.70;;;7.50;99.90;;;;;;5037960;28;20218;-65
2023/01/12 05:43:50;;;;;;;8.20;2.53;;;7.60;99.90;;;;;;5032956;28;20207;-66
2023/01/12 05:46:24;;;;;;;5.00;1.77;;;7.60;99.90;;;;;;5037008;28;20209;-66
2023/01/12 05:48:51;;;;;;;3.93;1.93;;;7.60;99.90;;;;;;5037634;28;20255;-67
2023/01/12 05:51:17;;;;;;;5.03;2.03;;;7.60;99.90;;;;;;5022684;28;20754;-65
2023/01/12 05:53:43;;;;;;;7.47;2.03;;;7.60;99.90;;;;;;5030264;28;20301;-65
2023/01/12 05:56:20;;;;;;;6.07;2.57;;;7.70;99.90;;;;;;5037450;28;20306;-65
2023/01/12 05:58:51;;;;;;;7.77;1.77;;;7.70;99.90;;;;;;5036272;28;20676;-65
2023/01/12 06:01:17;;;;;;;5.77;2.23;;;7.70;99.90;;;;;;5024688;28;20214;-66
2023/01/12 06:03:42;;;;;;;7.67;2.13;;;7.70;99.90;;;;;;5037842;28;20195;-65
2023/01/12 06:06:08;;;;;;;7.70;2.33;;;7.70;99.90;;;;;;5037648;28;20610;-65
2023/01/12 06:08:33;;;;;;;10.50;2.83;;;7.70;99.90;;;;;;5037286;28;20233;-65
2023/01/12 06:11:01;;;;;;;7.67;2.10;;;7.70;99.90;;;;;;5030910;28;20737;-65
2023/01/12 06:16:10;;;;;;;9.37;2.30;;;7.80;99.90;;;;;;5032475;28;20239;-65
2023/01/12 06:18:38;;;;;;;12.67;1.90;;;7.80;99.90;;;;;;5036730;28;20277;-64
2023/01/12 06:21:05;;;;;;;7.30;2.57;;;7.70;99.90;;;;;;5036980;28;20213;-66
2023/01/12 06:23:30;;;;;;;7.00;1.37;;;7.70;99.90;;;;;;5037511;28;20752;-65
2023/01/12 06:26:00;;;;;;;6.53;2.00;;;7.70;99.90;;;;;;5036884;28;20770;-65
2023/01/12 06:28:25;;;;;;;9.37;1.90;;;7.70;99.90;;;;;;5035823;28;20214;-66
2023/01/12 06:30:56;;;;;;;8.50;2.23;;;7.70;99.90;;;;;;5037037;28;20201;-65
2023/01/12 06:33:23;;;;;;;4.23;1.40;;;7.80;99.90;;;;;;5036081;28;20641;-66
2023/01/12 06:35:49;;;;;;;6.37;1.53;;;7.80;99.90;;;;;;5036984;28;20194;-66
2023/01/12 06:38:15;;;;;;;6.40;2.00;;;7.70;99.90;;;;;;5034822;28;20203;-66
2023/01/12 06:40:40;;;;;;;8.03;1.97;;;7.70;99.90;;;;;;5034868;28;20574;-66
2023/01/12 06:43:06;;;;;;;4.27;2.17;;;7.70;99.90;;;;;;5026604;28;20598;-66
2023/01/12 06:45:31;;;;;;;4.27;1.67;;;7.80;99.90;;;;;;5030160;28;20206;-65
2023/01/12 06:47:57;;;;;;;10.03;2.13;;;7.80;99.90;;;;;;5036293;28;20408;-66
2023/01/12 06:50:23;;;;;;;2.73;1.23;;;7.70;99.90;;;;;;5037069;28;20225;-66
2023/01/12 06:52:49;;;;;;;8.77;2.20;;;7.70;99.90;;;;;;5034298;28;20195;-65
2023/01/12 06:55:15;;;;;;;6.70;1.90;;;7.80;99.90;;;;;;5036170;28;20576;-65
2023/01/12 06:57:40;;;;;;;4.03;1.80;;;7.70;99.90;;;;;;5035791;28;20344;-65
2023/01/12 07:00:07;;;;;;;3.93;2.10;;;7.70;99.90;;;;;;5036141;28;20675;-65
2023/01/12 07:02:33;;;;;;;5.93;1.90;;;7.70;99.90;;;;;;5036549;28;20213;-66
2023/01/12 07:04:58;;;;;;;5.47;2.40;;;7.70;99.90;;;;;;5036540;28;20203;-66
2023/01/12 07:07:24;;;;;;;2.60;1.67;;;7.70;99.90;;;;;;5034462;28;20333;-66
2023/01/12 07:09:49;;;;;;;4.50;2.10;;;7.60;99.90;;;;;;5036759;28;20203;-66
2023/01/12 07:12:15;;;;;;;4.83;2.07;;;7.70;99.90;;;;;;5036146;28;20321;-66
2023/01/12 07:14:40;;;;;;;4.27;1.70;;;7.70;99.90;;;;;;5024229;28;20206;-64
2023/01/12 07:17:06;;;;;;;2.73;1.43;;;7.70;99.90;;;;;;5026073;28;20206;-65
2023/01/12 07:19:31;;;;;;;3.73;2.00;;;7.70;99.90;;;;;;5028670;28;20738;-63
2023/01/12 07:21:57;;;;;;;3.13;2.13;;;7.60;99.90;;;;;;5021572;28;20207;-66
2023/01/12 07:24:22;;;;;;;8.40;1.90;;;7.70;99.90;;;;;;5026639;28;20207;-65
2023/01/12 07:26:48;;;;;;;4.70;1.90;;;7.70;99.90;;;;;;5026743;28;20234;-65
2023/01/12 07:29:14;;;;;;;4.17;1.70;;;7.70;99.90;;;;;;5026492;28;20290;-66
2023/01/12 07:31:40;;;;;;;10.10;1.90;;;7.80;99.90;;;;;;5036172;28;20290;-66
2023/01/12 07:34:06;;;;;;;9.30;2.63;;;7.80;99.90;;;;;;5025638;28;20622;-63
2023/01/12 07:36:31;;;;;;;10.67;2.27;;;7.90;99.90;;;;;;5020815;28;20718;-65
2023/01/12 07:38:57;;;;;;;9.53;2.43;;;7.90;99.90;;;;;;5026070;28;20205;-66
2023/01/12 07:44:07;;;;;;;3.63;2.23;;;8.00;99.90;;;;;;5017088;28;20265;-67
2023/01/12 07:46:33;;;;;;;6.17;1.97;;;8.00;99.90;;;;;;5026666;28;20230;-66
2023/01/12 07:48:59;;;;;;;5.37;1.80;;;8.00;99.90;;;;;;5026492;28;20293;-65
2023/01/12 07:51:24;;;;;;;5.20;2.03;;;8.10;99.90;;;;;;5026664;28;20630;-66
2023/01/12 07:53:50;;;;;;;5.93;2.00;;;8.10;99.90;;;;;;5027254;28;20760;-66
2023/01/12 07:56:16;;;;;;;4.50;2.03;;;8.10;99.90;;;;;;5024705;28;20248;-66
2023/01/12 07:58:42;;;;;;;4.50;2.40;;;8.20;99.90;;;;;;5026056;28;20699;-66
2023/01/12 08:01:07;;;;;;;4.57;1.30;;;8.20;99.90;;;;;;5025792;28;20281;-66
2023/01/12 08:03:33;;;;;;;3.23;1.63;;;8.20;99.90;;;;;;5026110;28;20210;-66
2023/01/12 08:05:59;;;;;;;4.33;1.73;;;8.20;99.90;;;;;;5025910;28;20564;-66
2023/01/12 08:08:25;;;;;;;5.47;1.70;;;8.30;99.90;;;;;;5023596;28;20219;-66
2023/01/12 08:10:50;;;;;;;6.03;1.63;;;8.30;99.90;;;;;;5026566;28;20196;-67
2023/01/12 08:13:17;;;;;;;5.57;2.30;;;8.30;99.90;;;;;;5026440;28;20302;-66
2023/01/12 08:15:48;;;;;;;2.73;1.40;;;8.30;99.90;;;;;;5028703;28;20195;-68
2023/01/12 08:18:21;;;;;;;6.23;1.60;;;8.30;99.90;;;;;;5024207;28;20562;-67
2023/01/12 08:20:47;;;;;;;7.03;1.83;;;8.30;99.90;;;;;;5021534;28;20206;-66
2023/01/12 08:23:18;;;;;;;5.83;2.03;;;8.40;99.90;;;;;;5027857;28;20631;-66
2023/01/12 08:25:48;;;;;;;4.37;1.73;;;8.40;99.90;;;;;;5035854;28;20203;-65
2023/01/12 08:28:18;;;;;;;3.77;1.67;;;8.50;99.90;;;;;;5035760;28;20241;-66
2023/01/12 08:30:46;;;;;;;8.33;2.07;;;8.50;99.90;;;;;;5032477;28;20971;-66
2023/01/12 08:33:12;;;;;;;7.00;2.20;;;8.50;99.90;;;;;;5032961;28;20195;-65
2023/01/12 08:35:38;;;;;;;5.73;1.77;;;8.60;99.90;;;;;;5035820;28;20794;-66
2023/01/12 08:38:03;;;;;;;6.47;2.10;;;8.60;99.90;;;;;;5032332;28;20236;-64
2023/01/12 08:41:31;;;;;;;4.37;1.60;;;8.60;99.90;;;;;;5035782;28;20890;-66
2023/01/12 08:44:00;;;;;;;4.13;1.97;;;8.60;99.90;;;;;;5035314;28;20210;-65
2023/01/12 08:46:06;;;;;;;3.67;1.50;;;8.70;99.90;;;;;;5031014;28;20754;-65
2023/01/12 08:48:33;;;;;;;6.10;1.70;;;8.80;99.90;;;;;;5034850;28;20215;-65
2023/01/12 08:50:58;;;;;;;4.60;1.90;;;8.70;99.90;;;;;;5018913;28;20650;-66
2023/01/12 08:53:24;;;;;;;6.00;1.90;;;8.80;99.90;;;;;;5030891;28;20309;-66
2023/01/12 08:55:53;;;;;;;5.47;1.83;;;8.80;99.90;;;;;;5010544;28;20282;-66
2023/01/12 08:58:18;;;;;;;2.93;1.33;;;8.80;99.90;;;;;;5013249;28;20214;-65
2023/01/12 09:00:44;;;;;;;5.87;1.57;;;8.90;99.90;;;;;;5011595;28;20204;-64
2023/01/12 09:03:09;;;;;;;7.60;1.13;;;8.90;99.90;;;;;;5013758;28;20684;-64
2023/01/12 09:05:35;;;;;;;2.50;1.30;;;8.90;99.90;;;;;;5024063;28;20433;-66
2023/01/12 09:08:00;;;;;;;3.67;1.20;;;9.00;99.90;;;;;;5033488;28;20765;-66
2023/01/12 09:10:26;;;;;;;8.17;1.40;;;9.00;99.90;;;;;;5036873;28;20254;-65
2023/01/12 09:12:51;;;;;;;5.23;1.60;;;9.00;99.90;;;;;;5014586;28;20580;-64
2023/01/12 09:15:17;;;;;;;6.73;1.70;;;9.00;99.90;;;;;;5038174;28;20202;-66
2023/01/12 09:17:43;;;;;;;3.30;1.30;;;9.00;99.90;;;;;;5037395;28;20194;-66
2023/01/12 09:20:09;;;;;;;6.50;1.33;;;9.10;99.90;;;;;;5034006;28;20195;-65
2023/01/12 09:22:35;;;;;;;2.87;1.47;;;9.10;99.90;;;;;;5033015;28;20202;-65
2023/01/12 09:25:00;;;;;;;5.27;1.60;;;9.10;99.90;;;;;;5037393;28;20894;-64
2023/01/12 09:27:26;;;;;;;3.10;1.47;;;9.10;99.90;;;;;;5033040;28;20610;-64
2023/01/12 09:29:51;;;;;;;5.73;2.17;;;9.20;99.90;;;;;;5028620;28;20199;-64
2023/01/12 09:32:17;;;;;;;5.43;1.40;;;9.20;99.90;;;;;;5028200;28;20191;-65
2023/01/12 09:34:43;;;;;;;2.97;1.30;;;9.30;99.90;;;;;;5028552;28;20201;-65
2023/01/12 09:37:08;;;;;;;6.57;1.67;;;9.30;99.90;;;;;;5026656;28;20195;-64
2023/01/12 09:39:34;;;;;;;6.20;1.60;;;9.40;99.90;;;;;;5017210;28;20195;-65
2023/01/12 09:47:51;;;;;;;5.57;1.60;;;9.50;99.90;;;;;;5027814;28;20740;-65
2023/01/12 09:50:27;;;;;;;4.77;1.47;;;9.50;99.90;;;;;;5025540;28;20676;-65
2023/01/12 09:53:01;;;;;;;3.43;1.70;;;9.60;99.90;;;;;;5030913;28;20663;-65
2023/01/12 09:55:40;;;;;;;5.37;1.40;;;9.70;99.90;;;;;;5034908;28;20195;-65
2023/01/12 09:58:30;;;;;;;4.80;1.30;;;9.80;99.90;;;;;;5025074;28;20195;-64
2023/01/12 10:00:57;;;;;;;5.10;2.00;;;9.90;99.90;;;;;;5031211;28;20285;-71
2023/01/12 10:03:37;;;;;;;5.53;1.70;;;10.00;99.90;;;;;;5023401;28;20203;-71
2023/01/12 10:06:04;;;;;;;5.57;1.70;;;10.00;99.90;;;;;;5037285;28;20209;-70
2023/01/12 10:08:45;;;;;;;2.67;1.57;;;10.10;99.90;;;;;;5027510;28;20635;-70
2023/01/12 10:11:27;;;;;;;4.63;1.30;;;10.10;99.90;;;;;;5024821;28;20629;-70
2023/01/12 10:14:07;;;;;;;4.67;1.53;;;10.10;99.90;;;;;;5037281;28;20632;-71
2023/01/12 10:16:44;;;;;;;6.43;1.70;;;10.10;99.90;;;;;;5037331;28;20198;-69
2023/01/12 10:19:19;;;;;;;3.90;1.77;;;10.10;99.90;;;;;;5032701;28;20206;-71
2023/01/12 10:21:46;;;;;;;5.10;2.20;;;10.10;99.90;;;;;;5012476;28;20669;-68
2023/01/12 10:24:12;;;;;;;4.40;1.30;;;10.10;99.90;;;;;;5018833;28;20217;-72
2023/01/12 10:26:42;;;;;;;3.93;1.53;;;10.20;99.90;;;;;;5014501;28;20196;-57
2023/01/12 10:29:10;;;;;;;5.27;1.90;;;10.80;99.90;;;;;;5011169;28;20823;-56
2023/01/12 10:31:36;;;;;;;2.47;1.30;;;11.40;99.90;;;;;;5017431;28;20342;-57
2023/01/12 10:34:07;;;;;;;3.03;1.60;;;12.00;99.90;;;;;;5034402;28;20746;-57
2023/01/12 10:36:41;;;;;;;2.47;1.37;;;12.40;99.90;;;;;;5019662;28;20213;-57
2023/01/12 10:39:26;;;;;;;2.10;1.23;;;12.60;99.90;;;;;;5015265;28;20218;-57
2023/01/12 10:43:17;;;;;;;3.63;2.00;;;12.70;99.90;;;;;;5036950;28;20280;-57
2023/01/12 10:45:19;;;;;;;2.77;1.77;;;12.90;99.90;;;;;;5037206;28;20207;-57
2023/01/12 10:47:46;;;;;;;5.33;1.40;;;13.00;99.90;;;;;;5036836;28;20222;-57
2023/01/12 10:50:22;;;;;;;5.60;1.67;;;12.80;99.90;;;;;;5036590;28;20201;-70
2023/01/12 10:52:51;;;;;;;2.43;1.47;;;12.60;99.90;;;;;;5035650;28;20200;-71
2023/01/12 10:55:19;;;;;;;7.77;1.97;;;12.00;99.90;;;;;;5036813;28;20711;-71
2023/01/12 10:57:46;;;;;;;7.03;2.43;;;11.40;99.90;;;;;;5035487;28;20329;-66
2023/01/12 11:00:23;;;;;;;3.97;1.90;;;10.90;99.90;;;;;;5012468;28;20204;-69
2023/01/12 11:02:49;;;;;;;4.57;1.10;;;10.40;99.90;;;;;;5011675;28;20195;-70
2023/01/12 11:05:34;;;;;;;2.57;1.63;;;10.10;99.90;;;;;;5034824;28;20218;-69
2023/01/12 11:08:00;;;;;;;4.93;1.50;;;9.90;99.90;;;;;;5036692;28;20215;-70
2023/01/12 11:10:32;;;;;;;4.43;1.77;;;9.80;99.90;;;;;;5036738;28;20346;-70
2023/01/12 11:13:02;;;;;;;4.90;1.77;;;9.50;99.90;;;;;;5036509;28;20225;-70
2023/01/12 11:15:28;;;;;;;3.43;1.20;;;9.40;99.90;;;;;;5034893;28;20230;-71
2023/01/12 11:18:02;;;;;;;5.90;1.50;;;9.30;99.90;;;;;;5029417;28;20433;-71
2023/01/12 11:20:46;;;;;;;7.70;2.10;;;9.20;99.90;;;;;;5004366;28;20250;-55
2023/01/12 11:23:47;;;;;;;2.53;1.30;;;9.30;99.90;;;;;;5007940;28;20211;-56
2023/01/12 11:26:18;;;;;;;3.60;1.90;;;9.90;99.90;;;;;;5005759;28;20211;-57
2023/01/12 11:28:57;;;;;;;6.30;2.17;;;10.40;99.90;;;;;;5017979;28;20221;-57
2023/01/12 11:31:31;;;;;;;4.47;1.50;;;10.50;99.90;;;;;;5015622;28;20207;-57
2023/01/12 11:34:01;;;;;;;6.97;1.50;;;10.70;99.90;;;;;;5026080;28;20562;-57
2023/01/12 11:36:33;;;;;;;5.47;1.60;;;10.80;99.90;;;;;;5031148;28;20286;-59
2023/01/12 11:39:05;;;;;;;4.00;1.53;;;10.90;99.90;;;;;;5009844;28;20203;-57
2023/01/12 11:41:38;;;;;;;4.50;1.50;;;10.90;99.90;;;;;;5008843;28;20232;-57
2023/01/12 11:44:23;;;;;;;3.20;1.17;;;10.90;99.90;;;;;;5009827;28;20211;-58
2023/01/12 11:46:59;;;;;;;3.47;1.57;;;11.10;99.90;;;;;;5008438;28;20238;-58
2023/01/12 11:49:33;;;;;;;3.10;2.07;;;11.50;99.90;;;;;;5014749;28;20294;-58
2023/01/12 11:52:01;;;;;;;3.43;1.27;;;11.60;99.90;;;;;;5009586;28;20242;-58
2023/01/12 11:54:28;;;;;;;5.80;1.60;;;11.60;99.90;;;;;;5030442;28;20634;-58
2023/01/12 11:57:14;;;;;;;2.13;1.20;;;11.70;99.90;;;;;;5009250;28;20200;-56
2023/01/12 11:59:56;;;;;;;3.20;1.53;;;11.70;99.90;;;;;;5010100;28;20613;-58
2023/01/12 12:02:44;;;;;;;3.63;1.40;;;11.70;99.90;;;;;;5009608;28;20425;-56
2023/01/12 12:05:40;;;;;;;2.23;0.90;;;12.00;99.90;;;;;;5008176;28;20191;-57
2023/01/12 12:08:33;;;;;;;2.70;1.60;;;12.10;99.90;;;;;;5007447;28;20686;-56
2023/01/12 12:11:15;;;;;;;2.40;1.43;;;12.30;99.90;;;;;;5009103;28;20670;-56
2023/01/12 12:14:20;;;;;;;2.30;1.20;;;12.10;99.90;;;;;;5009588;28;20199;-57
2023/01/12 12:16:57;;;;;;;3.17;1.50;;;12.30;99.90;;;;;;5008655;28;20258;-56
2023/01/12 12:19:40;;;;;;;2.67;0.90;;;12.30;99.90;;;;;;5009672;28;20209;-57
2023/01/12 12:22:26;;;;;;;2.10;1.10;;;12.20;99.90;;;;;;5014214;28;20278;-57
2023/01/12 12:25:12;;;;;;;5.00;1.17;;;12.10;99.90;;;;;;5010293;28;20216;-56
2023/01/12 12:28:04;;;;;;;2.40;1.00;;;12.10;99.90;;;;;;5013910;28;20268;-56
2023/01/12 12:31:01;;;;;;;2.60;1.53;;;12.30;99.90;;;;;;5010183;28;20207;-57
2023/01/12 12:33:36;;;;;;;4.90;0.90;;;12.20;99.90;;;;;;4995811;28;20223;-57
2023/01/12 12:36:16;;;;;;;1.63;1.30;;;12.30;99.90;;;;;;5011694;28;20243;-57
2023/01/12 12:39:17;;;;;;;1.60;1.00;;;12.30;99.90;;;;;;5009777;28;20214;-57
2023/01/12 12:45:17;;;;;;;2.10;0.70;;;12.10;99.90;;;;;;5039417;28;20692;-58
2023/01/12 12:48:04;;;;;;;1.70;0.80;;;12.30;99.90;;;;;;5016891;28;20311;-58
2023/01/12 12:50:39;;;;;;;1.17;1.07;;;12.60;99.90;;;;;;5014447;28;20932;-59
2023/01/12 12:53:25;;;;;;;2.77;0.80;;;12.80;99.90;;;;;;5011119;28;20645;-70
2023/01/12 12:55:52;;;;;;;0.83;0.80;;;12.80;99.90;;;;;;5011007;28;20206;-57
2023/01/12 12:58:20;;;;;;;1.00;0.80;;;12.70;99.90;;;;;;5012179;28;20204;-57
2023/01/12 13:00:47;;;;;;;1.83;0.90;;;12.70;99.90;;;;;;5012276;28;20252;-57
2023/01/12 13:03:40;;;;;;;1.20;0.90;;;12.80;99.90;;;;;;5010377;28;20204;-57
2023/01/12 13:06:23;;;;;;;2.53;0.90;;;12.90;99.90;;;;;;5015430;28;20211;-57
2023/01/12 13:08:52;;;;;;;2.23;1.07;;;12.70;99.90;;;;;;5012806;28;20221;-56
2023/01/12 13:11:18;;;;;;;3.17;1.00;;;12.60;99.90;;;;;;5013255;28;20195;-58
2023/01/12 13:13:59;;;;;;;2.00;0.97;;;12.80;99.90;;;;;;5021314;28;20207;-59
2023/01/12 13:16:28;;;;;;;1.13;0.60;;;13.00;99.90;;;;;;5012451;28;20304;-57
2023/01/12 13:18:53;;;;;;;1.07;0.70;;;13.00;99.90;;;;;;5011919;28;20201;-58
2023/01/12 13:21:25;;;;;;;1.20;0.57;;;12.70;99.90;;;;;;5010790;28;20205;-57
2023/01/12 13:24:11;;;;;;;1.53;0.90;;;12.70;99.90;;;;;;5013791;28;20666;-57
2023/01/12 13:26:40;;;;;;;1.20;0.73;;;13.10;99.90;;;;;;5003438;28;20215;-57
2023/01/12 13:29:24;;;;;;;2.20;0.53;;;12.90;99.90;;;;;;5013818;28;20701;-58
2023/01/12 13:31:54;;;;;;;2.90;1.10;;;12.80;99.90;;;;;;5029604;28;20254;-57
2023/01/12 13:34:41;;;;;;;11.13;10.30;;;12.90;99.90;;;;;;5011216;28;20598;-57
2023/01/12 13:37:41;;;;;;;1.73;1.60;;;13.10;99.90;;;;;;5012878;28;20232;-57
2023/01/12 13:40:17;;;;;;;0.67;0.60;;;12.90;99.90;;;;;;5012298;28;20338;-57
2023/01/12 13:45:29;;;;;;;1.40;1.40;;;12.90;99.90;;;;;;5012379;28;20712;-57